createdAt,value
2019-01-12T00:00:54.797Z,97.50
2019-01-12T00:03:25.137Z,97.40
2019-01-12T00:05:55.578Z,97.40
2019-01-12T00:08:26.081Z,97.30
2019-01-12T00:10:56.555Z,97.30
2019-01-12T00:13:26.678Z,97.40
2019-01-12T00:15:56.279Z,97.70
2019-01-12T00:18:26.522Z,97.70
2019-01-12T00:20:57.116Z,97.80
2019-01-12T00:23:46.459Z,97.90
2019-01-12T00:26:17.024Z,97.60
2019-01-12T00:28:47.583Z,97.50
2019-01-12T00:31:18.159Z,97.60
2019-01-12T00:33:48.844Z,97.50
2019-01-12T00:36:19.486Z,97.50
2019-01-12T00:38:50.065Z,97.60
2019-01-12T00:41:20.623Z,97.70
2019-01-12T00:43:51.128Z,97.40
2019-01-12T00:46:21.660Z,97.30
2019-01-12T00:48:51.967Z,96.90
2019-01-12T00:51:22.609Z,96.90
2019-01-12T00:53:53.281Z,96.90
2019-01-12T00:56:23.822Z,97.00
2019-01-12T00:58:54.419Z,96.90
2019-01-12T01:01:24.884Z,96.80
2019-01-12T01:03:55.040Z,96.80
2019-01-12T01:06:25.385Z,96.80
2019-01-12T01:08:55.981Z,96.90
2019-01-12T01:11:26.604Z,96.90
2019-01-12T01:13:57.272Z,97.00
2019-01-12T01:16:27.771Z,97.00
2019-01-12T01:18:57.619Z,97.20
2019-01-12T01:21:28.283Z,97.20
2019-01-12T01:23:58.767Z,97.20
2019-01-12T01:26:28.932Z,97.30
2019-01-12T01:28:59.189Z,97.40
2019-01-12T01:31:29.738Z,97.60
2019-01-12T01:33:59.966Z,97.50
2019-01-12T01:36:30.578Z,97.70
2019-01-12T01:39:01.284Z,97.90
2019-01-12T01:41:31.911Z,98.40
2019-01-12T01:44:02.259Z,98.10
2019-01-12T01:46:32.835Z,98.30
2019-01-12T01:49:03.055Z,98.50
2019-01-12T01:51:33.332Z,98.90
2019-01-12T01:54:03.225Z,99.00
2019-01-12T01:56:33.827Z,99.10
2019-01-12T01:59:04.342Z,99.20
2019-01-12T02:01:34.794Z,99.20
2019-01-12T02:04:05.076Z,99.30
2019-01-12T02:06:35.830Z,99.40
2019-01-12T02:09:08.326Z,99.30
2019-01-12T02:11:38.916Z,99.60
2019-01-12T02:14:09.558Z,99.80
2019-01-12T02:16:40.026Z,99.80
2019-01-12T02:19:10.574Z,99.80
2019-01-12T02:21:41.229Z,99.60
2019-01-12T02:24:11.755Z,99.60
2019-01-12T02:26:42.040Z,99.50
2019-01-12T02:29:12.168Z,99.30
2019-01-12T02:31:42.696Z,99.40
2019-01-12T02:34:13.022Z,99.20
2019-01-12T02:36:43.152Z,99.10
2019-01-12T02:39:13.288Z,98.90
2019-01-12T02:41:43.874Z,99.00
2019-01-12T02:44:14.344Z,99.20
2019-01-12T02:46:44.806Z,99.10
2019-01-12T02:49:15.464Z,99.10
2019-01-12T02:51:45.786Z,98.90
2019-01-12T02:54:16.260Z,99.00
2019-01-12T02:56:46.390Z,99.10
2019-01-12T02:59:16.957Z,98.90
2019-01-12T03:01:47.561Z,98.70
2019-01-12T03:04:17.877Z,98.70
2019-01-12T03:06:48.523Z,98.60
2019-01-12T03:09:18.476Z,98.60
2019-01-12T03:11:49.019Z,98.60
2019-01-12T03:14:19.202Z,98.30
2019-01-12T03:16:49.677Z,98.60
2019-01-12T03:19:20.164Z,98.60
2019-01-12T03:21:50.321Z,98.70
2019-01-12T03:24:20.956Z,98.80
2019-01-12T03:26:51.173Z,98.80
2019-01-12T03:29:21.778Z,98.90
2019-01-12T03:31:52.465Z,99.00
2019-01-12T03:34:23.108Z,98.90
2019-01-12T03:36:53.187Z,98.70
2019-01-12T03:39:23.923Z,98.60
2019-01-12T03:41:54.540Z,98.90
2019-01-12T03:44:24.307Z,98.70
2019-01-12T03:46:54.923Z,98.80
2019-01-12T03:49:25.097Z,98.70
2019-01-12T03:51:55.519Z,98.80
2019-01-12T03:54:25.814Z,98.60
2019-01-12T03:56:56.172Z,98.60
2019-01-12T03:59:26.466Z,98.80
2019-01-12T04:01:57.093Z,98.90
2019-01-12T04:04:27.254Z,99.00
2019-01-12T04:06:57.582Z,98.80
2019-01-12T04:09:27.755Z,98.90
2019-01-12T04:11:58.251Z,99.10
2019-01-12T04:14:28.732Z,99.10
2019-01-12T04:16:59.194Z,99.20
2019-01-12T04:19:48.125Z,99.10
2019-01-12T04:22:18.437Z,99.20
2019-01-12T04:24:48.987Z,99.10
2019-01-12T04:27:19.156Z,99.30
2019-01-12T04:29:49.042Z,99.40
2019-01-12T04:32:19.379Z,99.30
2019-01-12T04:34:49.570Z,99.20
2019-01-12T04:37:19.736Z,99.40
2019-01-12T04:39:50.434Z,99.20
2019-01-12T04:42:20.927Z,99.10
2019-01-12T04:44:51.433Z,99.40
2019-01-12T04:47:21.304Z,99.20
2019-01-12T04:49:51.603Z,99.40
2019-01-12T04:52:22.259Z,99.00
2019-01-12T04:54:52.523Z,99.10
2019-01-12T04:57:22.716Z,99.00
2019-01-12T04:59:53.262Z,98.90
2019-01-12T05:02:23.292Z,98.90
2019-01-12T05:04:53.963Z,99.10
2019-01-12T05:07:24.490Z,99.10
2019-01-12T05:09:55.652Z,99.20
2019-01-12T05:12:25.805Z,99.10
2019-01-12T05:14:56.330Z,98.90
2019-01-12T05:17:26.669Z,99.00
2019-01-12T05:19:56.844Z,99.10
2019-01-12T05:22:27.512Z,99.10
2019-01-12T05:24:58.093Z,99.50
2019-01-12T05:27:28.273Z,99.10
2019-01-12T05:29:58.503Z,99.00
2019-01-12T05:32:28.320Z,98.90
2019-01-12T05:34:58.525Z,99.00
2019-01-12T05:37:28.466Z,99.20
2019-01-12T05:39:59.047Z,99.30
2019-01-12T05:42:29.398Z,99.30
2019-01-12T05:44:59.791Z,99.20
2019-01-12T05:47:30.224Z,99.20
2019-01-12T05:50:00.451Z,99.00
2019-01-12T05:52:30.765Z,98.60
2019-01-12T05:55:00.978Z,98.70
2019-01-12T05:57:31.051Z,98.50
2019-01-12T06:00:01.710Z,98.50
2019-01-12T06:02:31.623Z,98.50
2019-01-12T06:05:02.136Z,98.70
2019-01-12T06:07:32.795Z,98.80
2019-01-12T06:10:03.331Z,98.80
2019-01-12T06:12:33.817Z,99.10
2019-01-12T06:15:04.998Z,99.00
2019-01-12T06:17:54.263Z,99.10
2019-01-12T06:20:24.491Z,98.90
2019-01-12T06:22:54.975Z,98.90
2019-01-12T06:25:25.546Z,99.40
2019-01-12T06:27:56.189Z,98.90
2019-01-12T06:30:26.417Z,99.00
2019-01-12T06:32:57.065Z,99.00
2019-01-12T06:35:27.634Z,99.10
2019-01-12T06:37:58.215Z,99.20
2019-01-12T06:40:28.691Z,99.30
2019-01-12T06:42:59.292Z,99.50
2019-01-12T06:45:48.203Z,99.50
2019-01-12T06:48:18.490Z,99.60
2019-01-12T06:50:48.680Z,99.50
2019-01-12T06:53:19.258Z,99.40
2019-01-12T06:55:49.430Z,99.60
2019-01-12T06:58:20.015Z,99.60
2019-01-12T07:00:50.305Z,99.50
2019-01-12T07:03:20.975Z,99.30
2019-01-12T07:05:51.834Z,99.30
2019-01-12T07:08:22.107Z,99.20
2019-01-12T07:10:52.671Z,99.20
2019-01-12T07:13:22.525Z,99.20
2019-01-12T07:15:53.084Z,99.00
2019-01-12T07:18:23.544Z,98.80
2019-01-12T07:20:53.971Z,98.50
2019-01-12T07:23:23.882Z,98.50
2019-01-12T07:25:54.163Z,98.50
2019-01-12T07:28:24.705Z,98.50
2019-01-12T07:30:54.938Z,98.60
2019-01-12T07:33:25.572Z,98.80
2019-01-12T07:35:56.164Z,99.00
2019-01-12T07:38:26.774Z,98.80
2019-01-12T07:40:57.383Z,98.90
2019-01-12T07:43:27.559Z,98.50
2019-01-12T07:45:57.766Z,98.50
2019-01-12T07:48:28.440Z,98.70
2019-01-12T07:50:58.621Z,99.10
2019-01-12T07:53:29.125Z,99.20
2019-01-12T07:55:59.587Z,99.30
2019-01-12T07:58:30.900Z,99.50
2019-01-12T08:01:03.889Z,99.60
2019-01-12T08:03:34.554Z,99.50
2019-01-12T08:06:04.974Z,99.60
2019-01-12T08:08:35.518Z,99.60
2019-01-12T08:11:06.136Z,99.80
2019-01-12T08:13:36.323Z,99.90
2019-01-12T08:16:06.602Z,99.90
2019-01-12T08:18:36.900Z,99.90
2019-01-12T08:21:07.111Z,99.90
2019-01-12T08:23:37.350Z,99.90
2019-01-12T08:26:07.582Z,99.90
2019-01-12T08:28:37.817Z,99.90
2019-01-12T08:31:08.257Z,99.90
2019-01-12T08:33:38.680Z,99.90
2019-01-12T08:36:08.825Z,99.90
2019-01-12T08:38:38.787Z,99.90
2019-01-12T08:41:09.352Z,99.90
2019-01-12T08:43:39.128Z,99.90
2019-01-12T08:46:09.463Z,99.80
2019-01-12T08:48:39.934Z,99.50
2019-01-12T08:51:10.388Z,99.40
2019-01-12T08:53:40.864Z,99.50
2019-01-12T08:56:11.339Z,99.30
2019-01-12T08:58:41.906Z,99.30
2019-01-12T09:01:12.400Z,99.30
2019-01-12T09:03:42.674Z,99.30
2019-01-12T09:06:12.696Z,99.40
2019-01-12T09:08:42.854Z,99.40
2019-01-12T09:11:13.283Z,99.50
2019-01-12T09:13:43.575Z,99.20
2019-01-12T09:16:14.040Z,99.00
2019-01-12T09:18:44.223Z,99.00
2019-01-12T09:21:14.456Z,99.00
2019-01-12T09:23:44.750Z,99.00
2019-01-12T09:26:14.586Z,98.80
2019-01-12T09:28:44.642Z,98.70
2019-01-12T09:31:14.500Z,98.90
2019-01-12T09:33:44.718Z,98.70
2019-01-12T09:36:15.056Z,98.60
2019-01-12T09:38:44.905Z,98.60
2019-01-12T09:41:15.479Z,98.60
2019-01-12T09:43:46.166Z,98.80
2019-01-12T09:46:16.330Z,99.00
2019-01-12T09:48:46.266Z,99.20
2019-01-12T09:51:16.217Z,99.10
2019-01-12T09:53:46.540Z,99.20
2019-01-12T09:56:17.198Z,99.00
2019-01-12T09:58:47.532Z,98.70
2019-01-12T10:01:18.096Z,98.60
2019-01-12T10:03:48.624Z,98.60
2019-01-12T10:06:19.332Z,98.60
2019-01-12T10:08:49.905Z,98.60
2019-01-12T10:11:20.002Z,98.20
2019-01-12T10:13:50.182Z,98.00
2019-01-12T10:16:20.388Z,98.10
2019-01-12T10:18:50.942Z,98.10
2019-01-12T10:21:21.558Z,98.20
2019-01-12T10:23:52.296Z,98.50
2019-01-12T10:26:22.495Z,98.40
2019-01-12T10:28:52.610Z,98.40
2019-01-12T10:31:22.986Z,98.10
2019-01-12T10:33:53.490Z,97.80
2019-01-12T10:36:23.753Z,97.50
2019-01-12T10:38:54.388Z,97.90
2019-01-12T10:41:24.606Z,97.70
2019-01-12T10:43:55.190Z,97.60
2019-01-12T10:46:25.714Z,97.80
2019-01-12T10:48:55.915Z,98.20
2019-01-12T10:51:26.490Z,97.80
2019-01-12T10:53:57.135Z,98.00
2019-01-12T10:56:27.825Z,98.00
2019-01-12T10:58:58.097Z,98.20
2019-01-12T11:01:28.726Z,98.40
2019-01-12T11:03:59.297Z,98.40
2019-01-12T11:06:28.790Z,97.90
2019-01-12T11:08:59.340Z,97.50
2019-01-12T11:11:29.829Z,97.60
2019-01-12T11:14:00.362Z,97.60
2019-01-12T11:16:31.106Z,97.60
2019-01-12T11:19:01.716Z,97.40
2019-01-12T11:21:32.306Z,97.40
2019-01-12T11:24:02.218Z,97.30
2019-01-12T11:26:32.710Z,97.50
2019-01-12T11:29:03.288Z,97.30
2019-01-12T11:31:33.826Z,97.10
2019-01-12T11:34:04.110Z,96.70
2019-01-12T11:36:34.672Z,96.90
2019-01-12T11:39:07.732Z,96.60
2019-01-12T11:41:38.086Z,96.60
2019-01-12T11:44:08.423Z,96.70
2019-01-12T11:46:38.598Z,96.40
2019-01-12T11:49:09.231Z,97.10
2019-01-12T11:51:39.636Z,96.90
2019-01-12T11:54:10.182Z,97.10
2019-01-12T11:56:40.722Z,96.60
2019-01-12T11:59:10.871Z,96.50
2019-01-12T12:01:41.363Z,96.30
2019-01-12T12:04:11.807Z,95.90
2019-01-12T12:06:41.994Z,95.70
2019-01-12T12:09:12.164Z,95.70
2019-01-12T12:11:42.792Z,95.90
2019-01-12T12:14:13.278Z,96.20
2019-01-12T12:16:43.435Z,96.30
2019-01-12T12:19:13.726Z,96.10
2019-01-12T12:21:44.197Z,96.00
2019-01-12T12:24:14.378Z,96.20
2019-01-12T12:27:05.127Z,96.40
2019-01-12T12:29:35.082Z,96.10
2019-01-12T12:32:05.105Z,96.10
2019-01-12T12:34:35.764Z,96.00
2019-01-12T12:37:06.230Z,96.00
2019-01-12T12:39:36.926Z,95.70
2019-01-12T12:42:07.225Z,95.80
2019-01-12T12:44:37.056Z,95.00
2019-01-12T12:47:07.568Z,95.00
2019-01-12T12:49:38.507Z,95.00
2019-01-12T12:52:09.132Z,94.80
2019-01-12T12:54:39.702Z,94.70
2019-01-12T12:57:10.499Z,94.90
2019-01-12T12:59:41.960Z,95.00
2019-01-12T13:02:12.058Z,94.80
2019-01-12T13:04:42.454Z,94.80
2019-01-12T13:07:13.924Z,94.90
2019-01-12T13:09:44.565Z,95.00
2019-01-12T13:12:14.951Z,95.00
2019-01-12T13:14:45.740Z,95.00
2019-01-12T13:17:16.373Z,95.00
2019-01-12T13:19:46.236Z,94.90
2019-01-12T13:22:16.993Z,95.10
2019-01-12T13:24:47.194Z,95.00
2019-01-12T13:27:18.783Z,95.10
2019-01-12T13:29:49.300Z,95.20
2019-01-12T13:32:19.867Z,95.30
2019-01-12T13:34:51.268Z,95.50
2019-01-12T13:37:22.468Z,95.60
2019-01-12T13:39:52.945Z,95.80
2019-01-12T13:42:23.139Z,95.60
2019-01-12T13:44:54.125Z,96.10
2019-01-12T13:47:24.587Z,96.20
2019-01-12T13:49:55.544Z,96.20
2019-01-12T13:52:25.424Z,96.40
2019-01-12T13:54:56.272Z,96.50
2019-01-12T13:57:34.298Z,96.50
2019-01-12T14:00:07.182Z,96.70
2019-01-12T14:02:38.058Z,96.60
2019-01-12T14:05:08.914Z,96.50
2019-01-12T14:07:39.197Z,97.10
2019-01-12T14:10:12.296Z,96.90
2019-01-12T14:12:42.959Z,96.90
2019-01-12T14:15:15.443Z,97.20
2019-01-12T14:17:46.573Z,97.30
2019-01-12T14:20:24.998Z,97.40
2019-01-12T14:22:55.626Z,97.40
2019-01-12T14:25:27.250Z,97.50
2019-01-12T14:27:58.282Z,97.50
2019-01-12T14:30:28.874Z,97.40
2019-01-12T14:32:58.671Z,97.40
2019-01-12T14:35:29.212Z,97.40
2019-01-12T14:37:59.395Z,97.30
2019-01-12T14:40:29.660Z,97.30
2019-01-12T14:42:59.852Z,97.40
2019-01-12T14:45:32.039Z,97.50
2019-01-12T14:48:02.295Z,97.80
2019-01-12T14:50:32.094Z,97.80
2019-01-12T14:53:02.263Z,97.70
2019-01-12T14:55:32.874Z,97.80
2019-01-12T14:58:03.395Z,97.70
2019-01-12T15:00:34.118Z,97.20
2019-01-12T15:03:04.303Z,96.80
2019-01-12T15:05:36.172Z,96.90
2019-01-12T15:08:07.160Z,96.70
2019-01-12T15:10:37.642Z,96.40
2019-01-12T15:13:07.837Z,96.30
2019-01-12T15:15:38.062Z,96.30
2019-01-12T15:18:08.354Z,96.10
2019-01-12T15:20:38.938Z,96.20
2019-01-12T15:23:09.315Z,95.90
2019-01-12T15:25:39.555Z,96.10
2019-01-12T15:28:10.186Z,96.10
2019-01-12T15:30:40.763Z,96.10
2019-01-12T15:33:12.518Z,96.10
2019-01-12T15:35:44.206Z,96.30
2019-01-12T15:38:14.145Z,96.40
2019-01-12T15:40:44.722Z,95.90
2019-01-12T15:43:32.068Z,95.80
2019-01-12T15:46:02.475Z,95.80
2019-01-12T15:48:33.430Z,95.80
2019-01-12T15:51:04.191Z,96.10
2019-01-12T15:53:35.052Z,96.20
2019-01-12T15:56:04.652Z,95.90
2019-01-12T15:58:34.668Z,95.90
2019-01-12T16:01:05.404Z,95.80
2019-01-12T16:03:36.096Z,95.60
2019-01-12T16:06:06.828Z,95.60
2019-01-12T16:08:38.028Z,95.60
2019-01-12T16:11:08.857Z,95.60
2019-01-12T16:13:39.695Z,95.60
2019-01-12T16:16:11.022Z,95.80
2019-01-12T16:18:41.891Z,95.80
2019-01-12T16:21:12.642Z,96.00
2019-01-12T16:23:43.101Z,96.10
2019-01-12T16:26:13.278Z,96.20
2019-01-12T16:28:43.802Z,96.00
2019-01-12T16:31:14.393Z,96.30
2019-01-12T16:33:45.003Z,96.20
2019-01-12T16:36:34.235Z,96.50
2019-01-12T16:39:05.483Z,96.60
2019-01-12T16:41:35.584Z,96.60
2019-01-12T16:44:06.171Z,96.50
2019-01-12T16:46:36.779Z,96.50
2019-01-12T16:49:07.283Z,96.50
2019-01-12T16:51:37.826Z,96.60
2019-01-12T16:54:07.855Z,96.40
2019-01-12T16:56:38.057Z,96.10
2019-01-12T16:59:08.240Z,96.20
2019-01-12T17:01:38.464Z,95.80
2019-01-12T17:04:15.610Z,95.40
2019-01-12T17:06:45.856Z,95.60
2019-01-12T17:09:15.796Z,95.40
2019-01-12T17:11:46.291Z,95.40
2019-01-12T17:14:16.933Z,95.60
2019-01-12T17:16:47.350Z,95.30
2019-01-12T17:19:17.585Z,95.50
2019-01-12T17:21:48.148Z,95.50
2019-01-12T17:24:18.196Z,95.40
2019-01-12T17:26:48.442Z,95.60
2019-01-12T17:29:19.007Z,95.70
2019-01-12T17:31:49.625Z,95.50
2019-01-12T17:34:20.098Z,95.80
2019-01-12T17:36:50.699Z,96.00
2019-01-12T17:39:21.179Z,96.20
2019-01-12T17:41:51.720Z,96.50
2019-01-12T17:44:21.998Z,96.80
2019-01-12T17:46:52.601Z,97.00
2019-01-12T17:49:22.829Z,97.30
2019-01-12T17:51:53.360Z,97.50
2019-01-12T17:54:23.251Z,97.80
2019-01-12T17:56:53.852Z,98.10
2019-01-12T17:59:23.826Z,98.30
2019-01-12T18:01:53.988Z,98.40
2019-01-12T18:04:43.416Z,98.50
2019-01-12T18:07:13.640Z,98.50
2019-01-12T18:09:43.872Z,98.90
2019-01-12T18:12:14.081Z,99.00
2019-01-12T18:14:44.420Z,99.40
2019-01-12T18:17:14.603Z,99.40
2019-01-12T18:19:44.540Z,99.50
2019-01-12T18:22:15.096Z,99.60
2019-01-12T18:24:45.259Z,99.70
2019-01-12T18:27:15.656Z,99.90
2019-01-12T18:29:45.612Z,99.70
2019-01-12T18:32:15.846Z,99.70
2019-01-12T18:34:45.828Z,99.80
2019-01-12T18:37:16.032Z,99.90
2019-01-12T18:39:47.719Z,99.90
2019-01-12T18:42:17.990Z,99.90
2019-01-12T18:45:07.799Z,99.90
2019-01-12T18:47:38.278Z,99.90
2019-01-12T18:50:11.897Z,99.90
2019-01-12T18:52:42.504Z,99.90
2019-01-12T18:55:13.356Z,99.90
2019-01-12T18:57:44.125Z,99.90
2019-01-12T19:00:18.538Z,99.90
2019-01-12T19:02:49.271Z,99.90
2019-01-12T19:05:19.945Z,99.90
2019-01-12T19:07:50.239Z,99.90
2019-01-12T19:10:20.994Z,99.90
2019-01-12T19:12:50.911Z,99.90
2019-01-12T19:15:26.459Z,99.90
2019-01-12T19:17:56.791Z,99.90
2019-01-12T19:20:27.053Z,99.90
2019-01-12T19:22:57.126Z,99.90
2019-01-12T19:25:27.628Z,99.90
2019-01-12T19:27:58.190Z,99.90
2019-01-12T19:30:28.820Z,99.90
2019-01-12T19:32:59.090Z,99.90
2019-01-12T19:35:29.690Z,99.90
2019-01-12T19:38:00.007Z,99.90
2019-01-12T19:40:30.507Z,99.90
2019-01-12T19:43:00.758Z,99.90
2019-01-12T19:45:31.424Z,99.80
2019-01-12T19:48:01.881Z,99.90
2019-01-12T19:50:32.150Z,99.90
2019-01-12T19:53:02.820Z,99.90
2019-01-12T19:55:33.271Z,99.80
2019-01-12T19:58:03.502Z,99.90
2019-01-12T20:00:34.962Z,99.70
2019-01-12T20:03:05.422Z,99.80
2019-01-12T20:05:36.100Z,99.90
2019-01-12T20:08:06.800Z,99.90
2019-01-12T20:10:37.373Z,99.90
2019-01-12T20:13:07.599Z,99.90
2019-01-12T20:15:38.102Z,99.90
2019-01-12T20:18:08.491Z,99.80
2019-01-12T20:20:37.750Z,99.60
2019-01-12T20:23:08.302Z,99.40
2019-01-12T20:25:38.586Z,99.40
2019-01-12T20:28:16.376Z,99.40
2019-01-12T20:31:32.253Z,99.20
2019-01-12T20:34:18.955Z,99.30
2019-01-12T20:37:15.155Z,99.30
2019-01-12T20:40:10.355Z,99.50
2019-01-12T20:43:08.203Z,99.50
2019-01-12T20:46:08.308Z,99.50
2019-01-12T20:49:02.702Z,99.30
2019-01-12T20:51:51.190Z,99.20
2019-01-12T20:55:11.125Z,99.70
2019-01-12T20:58:12.307Z,99.20
2019-01-12T21:01:09.263Z,99.30
2019-01-12T21:04:18.885Z,99.50
2019-01-12T21:07:25.333Z,99.40
2019-01-12T21:10:41.413Z,99.20
2019-01-12T21:13:59.697Z,99.30
2019-01-12T21:16:43.910Z,99.30
2019-01-12T21:19:15.197Z,99.40
2019-01-12T21:21:51.611Z,99.50
2019-01-12T21:24:22.262Z,99.50
2019-01-12T21:26:52.512Z,99.60
2019-01-12T21:29:25.899Z,99.40
2019-01-12T21:31:56.497Z,99.20
2019-01-12T21:34:26.885Z,98.80
2019-01-12T21:36:57.572Z,99.00
2019-01-12T21:39:28.518Z,99.10
2019-01-12T21:42:01.982Z,99.00
2019-01-12T21:44:32.611Z,98.90
2019-01-12T21:47:02.648Z,99.00
2019-01-12T21:49:47.848Z,99.00
2019-01-12T21:52:24.899Z,99.00
2019-01-12T21:54:55.012Z,99.00
2019-01-12T21:57:25.314Z,99.10
2019-01-12T21:59:55.920Z,98.90
2019-01-12T22:02:26.296Z,98.70
2019-01-12T22:04:56.888Z,98.60
2019-01-12T22:07:27.485Z,98.60
2019-01-12T22:09:58.056Z,98.90
2019-01-12T22:12:28.259Z,98.60
2019-01-12T22:14:59.150Z,98.80
2019-01-12T22:17:29.874Z,98.60
2019-01-12T22:20:00.138Z,98.60
2019-01-12T22:22:30.462Z,98.60
2019-01-12T22:25:00.813Z,98.60
2019-01-12T22:27:31.129Z,98.80
2019-01-12T22:30:01.404Z,98.60
2019-01-12T22:32:32.152Z,98.60
2019-01-12T22:35:02.516Z,98.60
2019-01-12T22:37:32.883Z,98.60
2019-01-12T22:40:03.553Z,98.60
2019-01-12T22:42:35.798Z,98.60
2019-01-12T22:45:06.799Z,98.60
2019-01-12T22:47:37.419Z,98.60
2019-01-12T22:50:09.589Z,98.60
2019-01-12T22:52:39.812Z,98.60
2019-01-12T22:55:11.743Z,98.60
2019-01-12T22:58:00.342Z,98.60
2019-01-12T23:00:44.425Z,98.90
2019-01-12T23:03:14.670Z,98.60
2019-01-12T23:05:44.926Z,98.60
2019-01-12T23:08:15.132Z,98.60
2019-01-12T23:10:45.453Z,98.60
2019-01-12T23:13:15.670Z,98.60
2019-01-12T23:15:45.590Z,98.70
2019-01-12T23:18:16.151Z,98.90
2019-01-12T23:20:46.874Z,98.90
2019-01-12T23:23:16.680Z,98.80
2019-01-12T23:25:47.198Z,98.60
2019-01-12T23:28:17.764Z,98.60
2019-01-12T23:30:47.915Z,98.60
2019-01-12T23:33:18.436Z,98.60
2019-01-12T23:35:49.126Z,98.80
2019-01-12T23:38:19.419Z,98.60
2019-01-12T23:40:49.268Z,98.60
2019-01-12T23:43:19.891Z,98.60
2019-01-12T23:45:50.063Z,98.70
2019-01-12T23:48:20.676Z,98.90
2019-01-12T23:50:50.838Z,98.60
2019-01-12T23:53:20.362Z,98.70
2019-01-12T23:55:51.014Z,98.60
2019-01-12T23:58:21.271Z,98.70
